createdAt,value
2019-05-28T00:01:40.297Z,7.08
2019-05-28T00:04:09.943Z,6.72
2019-05-28T00:06:39.636Z,6.15
2019-05-28T00:09:10.190Z,6.83
2019-05-28T00:11:40.040Z,6.08
2019-05-28T00:14:09.703Z,8.75
2019-05-28T00:16:39.351Z,6.37
2019-05-28T00:19:09.084Z,6.22
2019-05-28T00:21:38.737Z,6.87
2019-05-28T00:24:08.461Z,6.28
2019-05-28T00:26:40.511Z,8.65
2019-05-28T00:29:10.158Z,7.55
2019-05-28T00:31:39.860Z,6.28
2019-05-28T00:34:09.657Z,8.90
2019-05-28T00:36:39.260Z,9.13
2019-05-28T00:39:09.463Z,6.83
2019-05-28T00:41:39.334Z,7.37
2019-05-28T00:44:09.056Z,6.03
2019-05-28T00:46:38.820Z,9.63
2019-05-28T00:49:08.666Z,7.35
2019-05-28T00:51:38.683Z,6.75
2019-05-28T00:54:08.441Z,8.90
2019-05-28T00:56:38.793Z,9.33
2019-05-28T00:59:08.753Z,10.18
2019-05-28T01:01:38.469Z,9.15
2019-05-28T01:04:08.118Z,7.80
2019-05-28T01:06:37.815Z,8.15
2019-05-28T01:09:08.422Z,9.00
2019-05-28T01:11:38.124Z,9.68
2019-05-28T01:14:07.961Z,7.35
2019-05-28T01:16:37.600Z,10.08
2019-05-28T01:19:07.249Z,8.43
2019-05-28T01:21:36.910Z,10.88
2019-05-28T01:24:06.607Z,10.30
2019-05-28T01:26:36.249Z,9.58
2019-05-28T01:29:05.911Z,11.22
2019-05-28T01:31:35.633Z,10.18
2019-05-28T01:34:08.182Z,10.40
2019-05-28T01:36:37.847Z,9.88
2019-05-28T01:39:08.249Z,9.00
2019-05-28T01:41:37.971Z,8.73
2019-05-28T01:44:07.597Z,9.25
2019-05-28T01:46:37.283Z,11.05
2019-05-28T01:49:07.174Z,8.35
2019-05-28T01:51:36.844Z,8.28
2019-05-28T01:54:06.546Z,9.08
2019-05-28T01:56:36.335Z,10.08
2019-05-28T01:59:06.148Z,8.88
2019-05-28T02:01:36.051Z,10.05
2019-05-28T02:04:06.017Z,11.08
2019-05-28T02:06:35.722Z,12.45
2019-05-28T02:09:06.921Z,9.33
2019-05-28T02:11:36.621Z,8.48
2019-05-28T02:14:06.435Z,10.08
2019-05-28T02:16:36.202Z,9.58
2019-05-28T02:19:05.989Z,9.78
2019-05-28T02:21:35.773Z,13.05
2019-05-28T02:24:05.528Z,17.57
2019-05-28T02:26:35.297Z,10.32
2019-05-28T02:29:05.111Z,14.23
2019-05-28T02:31:34.824Z,12.93
2019-05-28T02:34:04.529Z,10.08
2019-05-28T02:36:34.202Z,15.32
2019-05-28T02:39:05.423Z,11.68
2019-05-28T02:41:35.171Z,10.38
2019-05-28T02:44:05.084Z,10.32
2019-05-28T02:46:34.720Z,11.30
2019-05-28T02:49:05.000Z,12.37
2019-05-28T02:51:34.759Z,10.75
2019-05-28T02:54:05.451Z,9.60
2019-05-28T02:56:35.440Z,17.20
2019-05-28T02:59:05.464Z,11.73
2019-05-28T03:01:44.173Z,10.60
2019-05-28T03:04:10.920Z,10.23
2019-05-28T03:06:43.546Z,11.25
2019-05-28T03:09:13.309Z,13.40
2019-05-28T03:11:42.964Z,12.50
2019-05-28T03:14:12.654Z,12.68
2019-05-28T03:16:45.200Z,13.43
2019-05-28T03:19:14.850Z,13.55
2019-05-28T03:21:46.717Z,14.25
2019-05-28T03:24:17.893Z,11.75
2019-05-28T03:26:47.684Z,14.50
2019-05-28T03:29:17.363Z,12.68
2019-05-28T03:32:05.766Z,15.70
2019-05-28T03:34:19.318Z,14.45
2019-05-28T03:36:49.051Z,15.60
2019-05-28T03:39:18.951Z,17.52
2019-05-28T03:41:48.972Z,13.58
2019-05-28T03:44:18.597Z,15.20
2019-05-28T03:46:48.228Z,14.90
2019-05-28T03:49:17.884Z,12.90
2019-05-28T03:51:47.884Z,14.68
2019-05-28T03:54:17.598Z,15.30
2019-05-28T03:56:47.199Z,13.85
2019-05-28T03:59:17.027Z,10.93
2019-05-28T04:01:47.605Z,13.35
2019-05-28T04:04:17.287Z,15.95
2019-05-28T04:06:46.975Z,12.82
2019-05-28T04:09:16.655Z,14.93
2019-05-28T04:11:46.477Z,14.18
2019-05-28T04:14:16.221Z,14.38
2019-05-28T04:16:45.947Z,13.05
2019-05-28T04:19:15.544Z,13.58
2019-05-28T04:21:45.217Z,16.90
2019-05-28T04:24:14.804Z,13.93
2019-05-28T04:26:44.488Z,16.73
2019-05-28T04:29:14.205Z,17.02
2019-05-28T04:31:46.931Z,16.55
2019-05-28T04:34:18.312Z,17.70
2019-05-28T04:36:48.039Z,13.98
2019-05-28T04:39:17.828Z,17.27
2019-05-28T04:41:47.434Z,13.95
2019-05-28T04:44:17.191Z,17.17
2019-05-28T04:47:08.549Z,15.05
2019-05-28T04:49:37.656Z,18.70
2019-05-28T04:52:07.411Z,15.58
2019-05-28T04:54:37.511Z,16.12
2019-05-28T04:57:07.269Z,13.13
2019-05-28T04:59:37.107Z,18.57
2019-05-28T05:02:09.686Z,14.83
2019-05-28T05:04:39.339Z,17.98
2019-05-28T05:07:09.027Z,15.13
2019-05-28T05:09:38.657Z,15.98
2019-05-28T05:12:08.493Z,16.12
2019-05-28T05:14:38.123Z,11.25
2019-05-28T05:17:07.793Z,14.70
2019-05-28T05:19:37.497Z,20.35
2019-05-28T05:22:07.428Z,16.05
2019-05-28T05:24:37.326Z,18.35
2019-05-28T05:27:06.963Z,15.75
2019-05-28T05:29:36.619Z,17.20
2019-05-28T05:32:06.389Z,13.68
2019-05-28T05:34:36.017Z,21.93
2019-05-28T05:37:05.724Z,22.05
2019-05-28T05:39:35.434Z,22.95
2019-05-28T05:42:05.094Z,15.93
2019-05-28T05:44:34.841Z,20.68
2019-05-28T05:47:04.491Z,19.30
2019-05-28T05:49:34.232Z,21.35
2019-05-28T05:52:22.975Z,25.20
2019-05-28T05:54:54.124Z,18.65
2019-05-28T05:57:23.819Z,21.33
2019-05-28T05:59:53.590Z,27.73
2019-05-28T06:02:23.255Z,22.48
2019-05-28T06:04:52.970Z,28.52
2019-05-28T06:07:22.659Z,23.65
2019-05-28T06:09:52.406Z,21.73
2019-05-28T06:12:22.040Z,21.02
2019-05-28T06:14:51.819Z,17.50
2019-05-28T06:17:21.588Z,16.10
2019-05-28T06:19:51.416Z,12.13
2019-05-28T06:22:21.144Z,16.50
2019-05-28T06:24:50.992Z,19.27
2019-05-28T06:27:20.843Z,19.40
2019-05-28T06:29:50.654Z,20.65
2019-05-28T06:32:20.295Z,23.60
2019-05-28T06:34:50.001Z,22.80
2019-05-28T06:37:19.722Z,20.55
2019-05-28T06:39:49.441Z,22.48
2019-05-28T06:42:19.203Z,23.55
2019-05-28T06:44:48.895Z,22.82
2019-05-28T06:47:18.952Z,23.52
2019-05-28T06:49:48.834Z,26.95
2019-05-28T06:52:18.600Z,19.48
2019-05-28T06:54:48.400Z,20.32
2019-05-28T06:57:23.262Z,18.10
2019-05-28T06:59:51.962Z,22.67
2019-05-28T07:02:24.422Z,16.20
2019-05-28T07:04:54.205Z,17.98
2019-05-28T07:07:27.062Z,17.02
2019-05-28T07:09:56.815Z,19.52
2019-05-28T07:12:29.623Z,22.37
2019-05-28T07:15:02.993Z,18.52
2019-05-28T07:17:43.717Z,19.30
2019-05-28T07:20:14.298Z,20.45
2019-05-28T07:22:44.233Z,21.65
2019-05-28T07:25:14.949Z,25.43
2019-05-28T07:27:44.778Z,24.37
2019-05-28T07:30:14.855Z,23.57
2019-05-28T07:32:44.588Z,27.07
2019-05-28T07:35:14.908Z,23.65
2019-05-28T07:37:46.616Z,22.07
2019-05-28T07:40:31.288Z,23.77
2019-05-28T07:42:49.501Z,33.10
2019-05-28T07:45:19.669Z,27.25
2019-05-28T07:47:49.435Z,26.10
2019-05-28T07:50:19.296Z,25.88
2019-05-28T07:52:51.890Z,26.23
2019-05-28T07:55:24.297Z,25.50
2019-05-28T07:57:56.865Z,28.92
2019-05-28T08:00:40.716Z,31.77
2019-05-28T08:03:14.427Z,23.92
2019-05-28T08:05:44.228Z,25.75
2019-05-28T08:08:17.958Z,34.40
2019-05-28T08:10:47.746Z,33.83
2019-05-28T08:13:18.966Z,23.98
2019-05-28T08:15:48.737Z,30.77
2019-05-28T08:18:18.587Z,29.75
2019-05-28T08:20:48.409Z,27.05
2019-05-28T08:23:18.443Z,26.82
2019-05-28T08:25:48.394Z,28.77
2019-05-28T08:28:20.279Z,24.70
2019-05-28T08:30:49.895Z,18.98
2019-05-28T08:33:19.614Z,30.88
2019-05-28T08:35:51.615Z,21.48
2019-05-28T08:38:21.057Z,33.48
2019-05-28T08:40:52.233Z,32.73
2019-05-28T08:43:26.251Z,41.48
2019-05-28T08:45:56.088Z,29.20
2019-05-28T08:48:27.832Z,35.05
2019-05-28T08:50:59.669Z,27.70
2019-05-28T08:53:29.891Z,27.32
2019-05-28T08:56:00.152Z,22.98
2019-05-28T08:58:30.010Z,21.82
2019-05-28T09:01:03.214Z,22.95
2019-05-28T09:03:33.371Z,25.80
2019-05-28T09:06:06.914Z,21.80
2019-05-28T09:08:41.207Z,19.48
2019-05-28T09:11:13.796Z,16.45
2019-05-28T09:13:45.012Z,22.75
2019-05-28T09:16:14.821Z,21.05
2019-05-28T09:18:44.877Z,22.90
2019-05-28T09:21:17.946Z,25.82
2019-05-28T09:23:47.692Z,26.48
2019-05-28T09:26:17.317Z,25.20
2019-05-28T09:28:47.082Z,24.82
2019-05-28T09:31:16.772Z,23.57
2019-05-28T09:33:46.437Z,24.70
2019-05-28T09:36:16.061Z,25.08
2019-05-28T09:38:45.940Z,31.27
2019-05-28T09:41:17.599Z,27.58
2019-05-28T09:43:47.319Z,32.53
2019-05-28T09:46:17.122Z,58.10
2019-05-28T09:48:46.835Z,54.55
2019-05-28T09:51:16.540Z,30.60
2019-05-28T09:53:47.436Z,29.25
2019-05-28T09:56:17.299Z,27.67
2019-05-28T09:58:53.252Z,30.85
2019-05-28T10:01:23.170Z,37.67
2019-05-28T10:03:52.952Z,27.20
2019-05-28T10:06:36.354Z,32.80
2019-05-28T10:08:54.372Z,27.93
2019-05-28T10:11:24.393Z,26.35
2019-05-28T10:13:56.147Z,31.30
2019-05-28T10:16:34.220Z,27.65
2019-05-28T10:19:04.136Z,31.62
2019-05-28T10:21:34.152Z,31.07
2019-05-28T10:24:04.305Z,35.00
2019-05-28T10:26:34.142Z,32.08
2019-05-28T10:29:03.994Z,27.60
2019-05-28T10:31:33.721Z,29.55
2019-05-28T10:34:03.554Z,33.88
2019-05-28T10:36:36.597Z,27.70
2019-05-28T10:39:06.933Z,32.38
2019-05-28T10:41:36.637Z,21.82
2019-05-28T10:44:06.591Z,25.72
2019-05-28T10:46:36.397Z,26.68
2019-05-28T10:49:06.147Z,25.08
2019-05-28T10:51:35.901Z,34.40
2019-05-28T10:54:05.936Z,46.15
2019-05-28T10:56:35.732Z,23.10
2019-05-28T10:59:05.888Z,22.00
2019-05-28T11:01:35.590Z,24.82
2019-05-28T11:04:05.776Z,29.55
2019-05-28T11:06:50.879Z,332.40
2019-05-28T11:09:10.372Z,254.90
2019-05-28T11:11:40.088Z,238.62
2019-05-28T11:14:09.805Z,107.63
2019-05-28T11:16:39.562Z,54.38
2019-05-28T11:19:09.358Z,41.73
2019-05-28T11:21:39.095Z,34.13
2019-05-28T11:24:08.932Z,29.85
2019-05-28T11:26:40.995Z,25.27
2019-05-28T11:29:10.734Z,24.35
2019-05-28T11:31:40.473Z,25.27
2019-05-28T11:34:18.811Z,29.45
2019-05-28T11:36:48.460Z,32.73
2019-05-28T11:39:18.162Z,35.70
2019-05-28T11:41:47.881Z,31.20
2019-05-28T11:44:17.525Z,33.38
2019-05-28T11:46:47.244Z,32.95
2019-05-28T11:49:17.007Z,24.70
2019-05-28T11:51:48.402Z,24.60
2019-05-28T11:54:18.123Z,31.20
2019-05-28T11:57:06.996Z,25.80
2019-05-28T11:59:36.729Z,28.25
2019-05-28T12:02:06.518Z,24.65
2019-05-28T12:04:36.288Z,24.37
2019-05-28T12:07:06.093Z,28.95
2019-05-28T12:09:35.819Z,28.60
2019-05-28T12:12:17.067Z,33.80
2019-05-28T12:14:48.508Z,41.95
2019-05-28T12:17:18.253Z,36.63
2019-05-28T12:19:47.959Z,35.85
2019-05-28T12:22:17.724Z,38.95
2019-05-28T12:24:47.428Z,32.03
2019-05-28T12:27:17.115Z,36.33
2019-05-28T12:29:51.798Z,34.30
2019-05-28T12:32:18.400Z,37.50
2019-05-28T12:34:48.221Z,44.98
2019-05-28T12:37:17.989Z,39.58
2019-05-28T12:39:47.940Z,35.40
2019-05-28T12:42:18.134Z,45.70
2019-05-28T12:44:47.807Z,38.38
2019-05-28T12:47:17.441Z,44.20
2019-05-28T12:49:47.172Z,46.20
2019-05-28T12:52:19.083Z,49.88
2019-05-28T12:54:48.816Z,82.95
2019-05-28T12:57:18.685Z,63.05
2019-05-28T12:59:48.471Z,49.70
2019-05-28T13:02:21.231Z,44.45
2019-05-28T13:04:51.005Z,47.45
2019-05-28T13:07:20.648Z,45.98
2019-05-28T13:09:50.708Z,49.08
2019-05-28T13:12:20.943Z,22.32
2019-05-28T13:14:50.752Z,20.80
2019-05-28T13:17:20.437Z,21.62
2019-05-28T13:19:50.190Z,25.08
2019-05-28T13:22:19.932Z,20.85
2019-05-28T13:24:49.783Z,19.17
2019-05-28T13:27:22.984Z,21.60
2019-05-28T13:29:52.687Z,24.52
2019-05-28T13:32:31.541Z,22.25
2019-05-28T13:35:01.498Z,25.48
2019-05-28T13:37:33.544Z,26.50
2019-05-28T13:40:05.189Z,24.65
2019-05-28T13:42:34.923Z,22.98
2019-05-28T13:45:14.373Z,21.65
2019-05-28T13:47:44.081Z,23.20
2019-05-28T13:50:14.779Z,25.37
2019-05-28T13:52:44.474Z,25.92
2019-05-28T13:55:14.398Z,27.20
2019-05-28T13:57:44.111Z,33.08
2019-05-28T14:00:16.059Z,33.08
2019-05-28T14:02:46.718Z,28.20
2019-05-28T14:05:19.112Z,24.55
2019-05-28T14:07:48.879Z,26.48
2019-05-28T14:10:18.843Z,25.45
2019-05-28T14:12:48.767Z,27.40
2019-05-28T14:15:19.479Z,21.50
2019-05-28T14:17:49.379Z,23.07
2019-05-28T14:20:20.165Z,26.15
2019-05-28T14:22:50.274Z,24.87
2019-05-28T14:25:22.416Z,24.82
2019-05-28T14:27:52.160Z,23.22
2019-05-28T14:30:22.513Z,23.22
2019-05-28T14:32:58.726Z,23.73
2019-05-28T14:35:29.952Z,23.65
2019-05-28T14:38:01.985Z,25.02
2019-05-28T14:40:51.280Z,24.32
2019-05-28T14:43:21.862Z,21.47
2019-05-28T14:45:51.636Z,25.60
2019-05-28T14:48:21.407Z,27.37
2019-05-28T14:51:10.381Z,24.12
2019-05-28T14:53:40.357Z,25.05
2019-05-28T14:56:10.543Z,27.45
2019-05-28T14:58:40.195Z,27.60
2019-05-28T15:01:10.068Z,24.70
2019-05-28T15:03:40.913Z,25.10
2019-05-28T15:06:10.713Z,23.73
2019-05-28T15:08:52.236Z,26.17
2019-05-28T15:11:22.208Z,26.95
2019-05-28T15:13:51.971Z,20.77
2019-05-28T15:16:21.757Z,23.27
2019-05-28T15:18:51.768Z,23.10
2019-05-28T15:21:21.515Z,20.92
2019-05-28T15:23:52.787Z,25.50
2019-05-28T15:26:22.594Z,24.20
2019-05-28T15:28:52.763Z,22.35
2019-05-28T15:31:22.657Z,24.77
2019-05-28T15:33:52.448Z,21.75
2019-05-28T15:36:22.212Z,23.62
2019-05-28T15:38:51.967Z,21.07
2019-05-28T15:41:21.627Z,28.05
2019-05-28T15:43:51.438Z,23.10
2019-05-28T15:46:21.233Z,22.20
2019-05-28T15:48:50.983Z,18.37
2019-05-28T15:51:20.763Z,23.65
2019-05-28T15:53:50.603Z,21.40
2019-05-28T15:56:20.430Z,24.92
2019-05-28T15:58:50.103Z,25.95
2019-05-28T16:01:19.962Z,23.25
2019-05-28T16:03:49.755Z,23.70
2019-05-28T16:06:19.525Z,30.60
2019-05-28T16:08:49.410Z,26.07
2019-05-28T16:11:19.358Z,22.73
2019-05-28T16:13:58.664Z,22.93
2019-05-28T16:16:40.017Z,19.30
2019-05-28T16:19:09.801Z,16.73
2019-05-28T16:21:43.094Z,18.20
2019-05-28T16:24:14.265Z,19.23
2019-05-28T16:27:02.359Z,15.23
2019-05-28T16:29:32.227Z,17.90
2019-05-28T16:32:01.921Z,16.63
2019-05-28T16:34:31.662Z,14.70
2019-05-28T16:37:01.429Z,13.60
2019-05-28T16:39:31.112Z,12.57
2019-05-28T16:42:00.895Z,9.97
2019-05-28T16:44:30.654Z,13.23
2019-05-28T16:47:19.324Z,10.07
2019-05-28T16:49:49.204Z,12.03
2019-05-28T16:52:18.948Z,15.93
2019-05-28T16:54:48.616Z,12.90
2019-05-28T16:57:18.329Z,14.87
2019-05-28T16:59:48.224Z,14.90
2019-05-28T17:02:17.975Z,14.87
2019-05-28T17:04:47.744Z,14.40
2019-05-28T17:07:17.492Z,13.13
2019-05-28T17:09:47.192Z,15.57
2019-05-28T17:12:17.000Z,18.27
2019-05-28T17:14:46.793Z,13.40
2019-05-28T17:17:16.496Z,15.53
2019-05-28T17:19:46.272Z,14.00
2019-05-28T17:22:17.907Z,14.37
2019-05-28T17:24:47.699Z,11.13
2019-05-28T17:27:17.739Z,13.70
2019-05-28T17:29:50.583Z,10.47
2019-05-28T17:32:19.165Z,13.20
2019-05-28T17:34:51.379Z,13.77
2019-05-28T17:37:21.310Z,10.73
2019-05-28T17:39:51.212Z,12.40
2019-05-28T17:42:21.269Z,12.17
2019-05-28T17:44:51.016Z,14.07
2019-05-28T17:47:20.937Z,11.63
2019-05-28T17:49:53.764Z,15.93
2019-05-28T17:52:25.671Z,12.10
2019-05-28T17:54:55.445Z,10.37
2019-05-28T17:57:25.500Z,9.17
2019-05-28T17:59:55.232Z,12.37
2019-05-28T18:02:25.009Z,15.37
2019-05-28T18:04:54.669Z,9.90
2019-05-28T18:07:24.562Z,11.20
2019-05-28T18:09:54.293Z,11.00
2019-05-28T18:12:24.044Z,14.00
2019-05-28T18:14:53.800Z,10.07
2019-05-28T18:17:23.550Z,13.10
2019-05-28T18:19:53.272Z,12.03
2019-05-28T18:22:23.190Z,14.07
2019-05-28T18:24:53.144Z,12.13
2019-05-28T18:27:23.238Z,13.70
2019-05-28T18:29:53.040Z,9.80
2019-05-28T18:32:23.750Z,11.73
2019-05-28T18:34:53.473Z,11.00
2019-05-28T18:37:23.310Z,12.00
2019-05-28T18:39:53.069Z,12.33
2019-05-28T18:42:22.711Z,13.40
2019-05-28T18:44:52.545Z,10.97
2019-05-28T18:47:22.403Z,8.77
2019-05-28T18:49:52.281Z,8.07
2019-05-28T18:52:21.994Z,9.30
2019-05-28T18:54:51.830Z,11.53
2019-05-28T18:57:40.586Z,7.73
2019-05-28T19:00:10.909Z,11.77
2019-05-28T19:02:40.729Z,9.13
2019-05-28T19:05:30.887Z,6.53
2019-05-28T19:08:00.640Z,8.53
2019-05-28T19:10:38.221Z,7.70
2019-05-28T19:13:27.189Z,10.33
2019-05-28T19:15:57.016Z,10.30
2019-05-28T19:18:28.326Z,8.93
2019-05-28T19:21:17.139Z,6.73
2019-05-28T19:23:47.049Z,9.33
2019-05-28T19:26:16.790Z,8.17
2019-05-28T19:28:46.602Z,9.93
2019-05-28T19:31:16.314Z,9.23
2019-05-28T19:33:46.121Z,10.00
2019-05-28T19:36:17.665Z,9.13
2019-05-28T19:39:07.054Z,10.53
2019-05-28T19:41:50.398Z,10.93
2019-05-28T19:44:08.496Z,9.87
2019-05-28T19:46:38.370Z,10.47
2019-05-28T19:49:08.111Z,10.50
2019-05-28T19:51:37.925Z,8.20
2019-05-28T19:54:08.259Z,8.57
2019-05-28T19:56:38.225Z,8.37
2019-05-28T19:59:07.904Z,10.87
2019-05-28T20:01:37.647Z,9.90
2019-05-28T20:04:07.489Z,11.83
2019-05-28T20:06:43.106Z,7.10
2019-05-28T20:09:12.919Z,9.00
2019-05-28T20:11:42.655Z,8.73
2019-05-28T20:14:12.646Z,11.23
2019-05-28T20:17:01.607Z,7.40
2019-05-28T20:19:31.446Z,9.40
2019-05-28T20:22:01.766Z,10.33
2019-05-28T20:24:31.674Z,9.23
2019-05-28T20:27:01.550Z,12.03
2019-05-28T20:29:50.415Z,8.23
2019-05-28T20:32:21.376Z,12.67
2019-05-28T20:34:51.306Z,10.27
2019-05-28T20:37:22.544Z,9.30
2019-05-28T20:39:52.447Z,12.77
2019-05-28T20:42:27.266Z,12.27
2019-05-28T20:44:53.868Z,8.97
2019-05-28T20:47:23.726Z,9.60
2019-05-28T20:49:56.810Z,10.57
2019-05-28T20:52:26.584Z,13.57
2019-05-28T20:54:57.263Z,10.70
2019-05-28T20:57:27.004Z,9.97
2019-05-28T21:00:04.230Z,13.53
2019-05-28T21:02:34.012Z,11.80
2019-05-28T21:05:03.759Z,10.60
2019-05-28T21:07:33.444Z,8.67
2019-05-28T21:10:04.344Z,12.60
2019-05-28T21:12:43.262Z,8.97
2019-05-28T21:15:06.637Z,15.30
2019-05-28T21:17:36.455Z,11.07
2019-05-28T21:20:06.973Z,9.40
2019-05-28T21:22:37.078Z,11.63
2019-05-28T21:25:07.680Z,10.73
2019-05-28T21:27:37.406Z,15.00
2019-05-28T21:30:07.696Z,12.33
2019-05-28T21:32:37.463Z,12.77
2019-05-28T21:35:07.640Z,14.03
2019-05-28T21:37:37.325Z,9.73
2019-05-28T21:40:07.274Z,13.60
2019-05-28T21:42:36.958Z,14.53
2019-05-28T21:45:08.429Z,12.00
2019-05-28T21:47:38.137Z,10.53
2019-05-28T21:50:09.517Z,12.00
2019-05-28T21:52:39.502Z,12.67
2019-05-28T21:55:09.726Z,10.43
2019-05-28T21:57:40.884Z,11.57
2019-05-28T22:00:16.396Z,13.63
2019-05-28T22:02:46.177Z,10.53
2019-05-28T22:05:16.086Z,14.97
2019-05-28T22:07:46.016Z,8.80
2019-05-28T22:10:34.822Z,11.37
2019-05-28T22:13:18.514Z,9.37
2019-05-28T22:15:36.145Z,8.57
2019-05-28T22:18:06.015Z,11.43
2019-05-28T22:20:35.726Z,12.23
2019-05-28T22:23:05.457Z,13.37
2019-05-28T22:25:35.277Z,11.80
2019-05-28T22:28:05.054Z,13.53
2019-05-28T22:30:34.754Z,12.97
2019-05-28T22:33:04.518Z,11.47
2019-05-28T22:35:34.490Z,10.60
2019-05-28T22:38:05.349Z,11.93
2019-05-28T22:40:35.098Z,10.70
2019-05-28T22:43:05.174Z,12.73
2019-05-28T22:45:39.944Z,13.07
2019-05-28T22:48:13.546Z,13.53
2019-05-28T22:50:37.662Z,14.80
2019-05-28T22:53:08.167Z,12.87
2019-05-28T22:55:38.002Z,11.83
2019-05-28T22:58:08.560Z,10.77
2019-05-28T23:00:38.400Z,7.67
2019-05-28T23:03:09.092Z,8.87
2019-05-28T23:05:39.100Z,8.67
2019-05-28T23:08:09.906Z,13.40
2019-05-28T23:10:39.833Z,13.20
2019-05-28T23:13:09.538Z,11.30
2019-05-28T23:15:39.126Z,10.13
2019-05-28T23:18:09.286Z,12.90
2019-05-28T23:20:39.468Z,12.97
2019-05-28T23:23:09.407Z,10.03
2019-05-28T23:25:39.298Z,8.27
2019-05-28T23:28:09.809Z,12.80
2019-05-28T23:30:39.617Z,11.33
2019-05-28T23:33:12.312Z,12.37
2019-05-28T23:35:40.632Z,9.97
2019-05-28T23:38:11.198Z,11.93
2019-05-28T23:40:40.980Z,10.00
2019-05-28T23:43:11.520Z,11.63
2019-05-28T23:45:41.288Z,6.37
2019-05-28T23:48:14.164Z,10.90
2019-05-28T23:50:42.203Z,10.87
2019-05-28T23:53:11.850Z,9.87
2019-05-28T23:55:51.823Z,11.70
2019-05-28T23:58:21.440Z,7.53
